Terminal Aerodrome Forecast
Issued by NWS Shreveport, LA

Home | Current Version | Previous Version | Text Only | Print | Product List | Glossary On
Versions: 1 2 3 4 5 6 7 8 9 10 11 12 13 14 15 16 17 18 19 20 21 22 23
901
FTUS44 KSHV 190254 AAA
TAFSHV
TAF AMD
KSHV 190254Z 1903/1924 34004KT 2SM BR OVC003
      TEMPO 1903/1906 1/2SM FG OVC001
     FM190600 VRB04KT 2SM -DZ BR OVC003
      TEMPO 1909/1913 3SM -SHRA BR OVC007
     FM191300 VRB04KT 3SM -SHRA BR OVC007
     FM191800 20006KT P6SM OVC015=

USA.gov is the U.S. government's official web portal to all federal, state and local government web resources and services.